Waldron Lake, Indiana
Current Conditions -  °F | °C
As of 1:37 PM on Thursday 27 Nov 2014 (Local Time) from KGSH Reporting Station
Overcast Overcast  
Wind Chill: -7°   Ceiling: 1200
Heat Index: -1°   Visibility: 9mi
Dew Point: -3°   Wind: 16mph
Humidity: 85%   Direction: 290°WNW
Pressure: 30.22"   Gusts: NA
Location:  41.4818°N, 85.481°W
Report Text: KGSH 271837Z AUTO 29014KT 9SM BKN012 BKN020 OVC026 M01/M03 A3022 RMK AO2 SNB22E35 P0000 T10061028
Loading
Personal Weather Stations






























Interactive Weather Map New forecast layout! Learn more

10-Day Weather Forecast

Advertisements
Track Severe Weather on mobile